createdAt,value
2018-09-16T00:01:43.804Z,2.60
2018-09-16T00:04:13.105Z,2.23
2018-09-16T00:06:43.469Z,2.50
2018-09-16T00:09:13.061Z,2.27
2018-09-16T00:11:42.951Z,2.80
2018-09-16T00:14:13.128Z,2.63
2018-09-16T00:16:42.348Z,2.50
2018-09-16T00:19:11.586Z,2.60
2018-09-16T00:21:40.910Z,2.70
2018-09-16T00:24:10.083Z,2.40
2018-09-16T00:26:39.487Z,2.70
2018-09-16T00:29:08.760Z,2.63
2018-09-16T00:31:38.078Z,2.60
2018-09-16T00:34:07.408Z,3.00
2018-09-16T00:36:36.919Z,2.90
2018-09-16T00:39:08.476Z,2.50
2018-09-16T00:41:38.653Z,1.70
2018-09-16T00:44:07.884Z,2.50
2018-09-16T00:46:37.240Z,3.47
2018-09-16T00:49:06.584Z,2.60
2018-09-16T00:51:35.943Z,2.90
2018-09-16T00:54:05.241Z,2.27
2018-09-16T00:56:34.743Z,2.40
2018-09-16T00:59:04.066Z,2.80
2018-09-16T01:01:33.581Z,2.30
2018-09-16T01:04:03.022Z,3.60
2018-09-16T01:06:36.196Z,4.60
2018-09-16T01:09:11.216Z,2.47
2018-09-16T01:11:40.445Z,2.50
2018-09-16T01:14:10.250Z,3.20
2018-09-16T01:16:40.499Z,2.47
2018-09-16T01:19:11.821Z,2.53
2018-09-16T01:21:41.133Z,4.33
2018-09-16T01:24:10.357Z,2.40
2018-09-16T01:26:39.670Z,3.37
2018-09-16T01:29:09.033Z,2.40
2018-09-16T01:31:38.380Z,2.33
2018-09-16T01:34:07.652Z,2.63
2018-09-16T01:36:36.944Z,2.17
2018-09-16T01:39:07.379Z,2.67
2018-09-16T01:41:36.956Z,3.13
2018-09-16T01:44:06.283Z,2.13
2018-09-16T01:46:35.635Z,2.40
2018-09-16T01:49:05.017Z,1.73
2018-09-16T01:51:34.300Z,2.63
2018-09-16T01:54:03.684Z,2.43
2018-09-16T01:56:33.024Z,2.60
2018-09-16T01:59:02.476Z,2.80
2018-09-16T02:01:31.903Z,2.10
2018-09-16T02:04:01.199Z,2.03
2018-09-16T02:06:30.633Z,2.43
2018-09-16T02:09:00.153Z,2.43
2018-09-16T02:11:29.773Z,1.83
2018-09-16T02:13:59.165Z,2.07
2018-09-16T02:16:28.661Z,2.07
2018-09-16T02:18:58.116Z,2.30
2018-09-16T02:21:27.608Z,2.47
2018-09-16T02:23:57.112Z,2.60
2018-09-16T02:26:26.676Z,2.33
2018-09-16T02:28:56.107Z,2.37
2018-09-16T02:31:25.409Z,2.67
2018-09-16T02:33:55.849Z,3.13
2018-09-16T02:36:25.138Z,2.20
2018-09-16T02:38:54.658Z,3.17
2018-09-16T02:41:23.918Z,2.10
2018-09-16T02:43:53.331Z,2.40
2018-09-16T02:46:22.641Z,2.93
2018-09-16T02:48:52.240Z,2.37
2018-09-16T02:51:22.486Z,2.43
2018-09-16T02:53:51.809Z,1.70
2018-09-16T02:56:21.030Z,2.03
2018-09-16T02:58:50.387Z,2.77
2018-09-16T03:01:20.549Z,2.20
2018-09-16T03:03:49.822Z,3.23
2018-09-16T03:06:23.360Z,2.30
2018-09-16T03:08:52.649Z,2.07
2018-09-16T03:11:21.948Z,2.90
2018-09-16T03:13:51.281Z,2.27
2018-09-16T03:16:20.570Z,3.00
2018-09-16T03:18:49.819Z,2.87
2018-09-16T03:21:19.286Z,2.70
2018-09-16T03:23:48.554Z,2.80
2018-09-16T03:26:18.543Z,3.10
2018-09-16T03:28:48.058Z,2.60
2018-09-16T03:31:17.553Z,2.80
2018-09-16T03:33:46.902Z,2.63
2018-09-16T03:36:16.221Z,3.10
2018-09-16T03:38:45.493Z,3.20
2018-09-16T03:41:14.768Z,3.30
2018-09-16T03:43:44.319Z,3.27
2018-09-16T03:46:13.568Z,4.30
2018-09-16T03:48:44.898Z,3.30
2018-09-16T03:51:14.103Z,4.33
2018-09-16T03:53:43.326Z,3.50
2018-09-16T03:56:12.642Z,4.73
2018-09-16T03:58:41.906Z,4.77
2018-09-16T04:01:11.140Z,5.03
2018-09-16T04:03:40.525Z,5.00
2018-09-16T04:06:09.789Z,5.47
2018-09-16T04:08:39.041Z,4.90
2018-09-16T04:11:08.414Z,5.43
2018-09-16T04:13:37.729Z,5.23
2018-09-16T04:16:07.076Z,5.40
2018-09-16T04:18:36.334Z,6.10
2018-09-16T04:21:05.931Z,6.40
2018-09-16T04:23:45.970Z,6.43
2018-09-16T04:26:15.998Z,6.37
2018-09-16T04:28:46.009Z,5.80
2018-09-16T04:31:16.657Z,7.87
2018-09-16T04:33:45.950Z,7.07
2018-09-16T04:36:15.242Z,6.73
2018-09-16T04:38:44.533Z,7.03
2018-09-16T04:41:13.801Z,8.73
2018-09-16T04:43:43.057Z,8.57
2018-09-16T04:46:12.345Z,9.60
2018-09-16T04:48:41.639Z,10.57
2018-09-16T04:51:11.049Z,10.57
2018-09-16T04:53:40.475Z,9.77
2018-09-16T04:56:09.758Z,10.40
2018-09-16T04:58:39.050Z,9.47
2018-09-16T05:01:08.783Z,11.17
2018-09-16T05:03:38.126Z,10.57
2018-09-16T05:06:07.427Z,9.43
2018-09-16T05:08:36.685Z,11.23
2018-09-16T05:11:06.045Z,12.30
2018-09-16T05:13:35.261Z,11.20
2018-09-16T05:16:04.638Z,10.43
2018-09-16T05:18:33.896Z,10.70
2018-09-16T05:21:03.572Z,11.00
2018-09-16T05:23:32.949Z,10.20
2018-09-16T05:26:02.354Z,9.90
2018-09-16T05:28:31.901Z,12.13
2018-09-16T05:31:01.356Z,10.10
2018-09-16T05:33:30.791Z,9.10
2018-09-16T05:36:00.124Z,9.07
2018-09-16T05:38:29.704Z,10.60
2018-09-16T05:40:59.236Z,9.27
2018-09-16T05:43:28.896Z,9.73
2018-09-16T05:45:58.410Z,8.80
2018-09-16T05:48:27.823Z,10.47
2018-09-16T05:50:57.256Z,8.70
2018-09-16T05:53:26.955Z,7.63
2018-09-16T05:55:56.318Z,8.07
2018-09-16T05:58:25.655Z,9.20
2018-09-16T06:00:55.186Z,9.37
2018-09-16T06:03:24.345Z,8.40
2018-09-16T06:05:53.751Z,7.30
2018-09-16T06:08:23.112Z,8.53
2018-09-16T06:10:52.386Z,7.23
2018-09-16T06:13:21.642Z,8.53
2018-09-16T06:15:50.975Z,10.40
2018-09-16T06:18:20.209Z,8.20
2018-09-16T06:20:49.438Z,7.50
2018-09-16T06:23:18.724Z,8.53
2018-09-16T06:25:47.936Z,7.10
2018-09-16T06:28:17.246Z,9.60
2018-09-16T06:30:46.522Z,7.67
2018-09-16T06:33:15.750Z,8.30
2018-09-16T06:35:45.132Z,7.60
2018-09-16T06:38:14.495Z,8.27
2018-09-16T06:40:43.942Z,7.43
2018-09-16T06:43:13.217Z,8.57
2018-09-16T06:45:42.566Z,7.70
2018-09-16T06:48:12.922Z,8.00
2018-09-16T06:50:42.281Z,7.83
2018-09-16T06:53:11.549Z,7.10
2018-09-16T06:55:40.937Z,6.90
2018-09-16T06:58:10.199Z,6.90
2018-09-16T07:00:39.479Z,6.27
2018-09-16T07:03:08.698Z,8.03
2018-09-16T07:05:38.605Z,6.53
2018-09-16T07:08:07.929Z,7.47
2018-09-16T07:10:37.255Z,7.17
2018-09-16T07:13:06.917Z,8.10
2018-09-16T07:15:36.406Z,7.90
2018-09-16T07:18:05.796Z,7.90
2018-09-16T07:20:35.117Z,7.77
2018-09-16T07:23:04.585Z,7.87
2018-09-16T07:25:33.952Z,6.50
2018-09-16T07:28:03.321Z,7.37
2018-09-16T07:30:32.817Z,7.70
2018-09-16T07:33:02.342Z,6.60
2018-09-16T07:35:31.950Z,5.93
2018-09-16T07:38:01.560Z,7.10
2018-09-16T07:40:30.911Z,8.03
2018-09-16T07:43:01.312Z,6.87
2018-09-16T07:45:30.781Z,8.00
2018-09-16T07:48:00.381Z,7.30
2018-09-16T07:50:29.913Z,6.80
2018-09-16T07:52:59.723Z,9.37
2018-09-16T07:55:29.468Z,6.67
2018-09-16T07:57:58.912Z,6.80
2018-09-16T08:00:28.714Z,6.83
2018-09-16T08:02:59.626Z,8.20
2018-09-16T08:05:29.359Z,5.37
2018-09-16T08:07:58.950Z,8.33
2018-09-16T08:10:29.092Z,6.70
2018-09-16T08:12:58.965Z,6.57
2018-09-16T08:15:28.994Z,5.83
2018-09-16T08:17:58.769Z,7.20
2018-09-16T08:20:28.454Z,4.80
2018-09-16T08:22:58.849Z,6.20
2018-09-16T08:25:28.376Z,6.33
2018-09-16T08:27:57.886Z,4.20
2018-09-16T08:30:27.525Z,4.90
2018-09-16T08:32:57.282Z,4.60
2018-09-16T08:35:27.600Z,3.90
2018-09-16T08:37:57.148Z,4.03
2018-09-16T08:40:27.984Z,4.23
2018-09-16T08:42:58.099Z,4.10
2018-09-16T08:45:27.789Z,4.70
2018-09-16T08:47:57.382Z,4.30
2018-09-16T08:50:27.048Z,3.80
2018-09-16T08:52:56.722Z,6.20
2018-09-16T08:55:26.365Z,4.97
2018-09-16T08:57:55.870Z,4.30
2018-09-16T09:00:25.753Z,5.97
2018-09-16T09:02:54.958Z,4.67
2018-09-16T09:05:24.354Z,4.30
2018-09-16T09:07:54.274Z,4.40
2018-09-16T09:10:23.535Z,3.90
2018-09-16T09:12:52.852Z,4.33
2018-09-16T09:15:22.136Z,4.20
2018-09-16T09:17:51.434Z,3.10
2018-09-16T09:20:20.989Z,3.37
2018-09-16T09:22:50.603Z,3.97
2018-09-16T09:25:19.912Z,4.13
2018-09-16T09:27:49.631Z,3.67
2018-09-16T09:30:19.351Z,3.80
2018-09-16T09:32:48.695Z,3.40
2018-09-16T09:35:18.099Z,4.67
2018-09-16T09:37:47.582Z,3.03
2018-09-16T09:40:16.902Z,3.30
2018-09-16T09:42:46.259Z,3.30
2018-09-16T09:45:15.449Z,3.23
2018-09-16T09:47:44.718Z,3.30
2018-09-16T09:50:14.103Z,3.10
2018-09-16T09:52:43.978Z,4.40
2018-09-16T09:55:13.217Z,3.60
2018-09-16T09:57:42.574Z,3.00
2018-09-16T10:00:15.910Z,3.33
2018-09-16T10:02:45.246Z,3.67
2018-09-16T10:05:14.591Z,3.90
2018-09-16T10:07:43.997Z,4.03
2018-09-16T10:10:13.329Z,3.40
2018-09-16T10:12:42.724Z,3.13
2018-09-16T10:15:12.480Z,3.87
2018-09-16T10:17:41.832Z,3.23
2018-09-16T10:20:11.102Z,2.90
2018-09-16T10:22:40.419Z,3.47
2018-09-16T10:25:09.661Z,2.70
2018-09-16T10:27:39.444Z,3.80
2018-09-16T10:30:08.674Z,3.20
2018-09-16T10:32:38.017Z,3.03
2018-09-16T10:35:07.568Z,3.30
2018-09-16T10:37:37.058Z,3.33
2018-09-16T10:40:06.621Z,3.40
2018-09-16T10:42:35.965Z,3.43
2018-09-16T10:45:05.528Z,3.60
2018-09-16T10:47:35.177Z,3.80
2018-09-16T10:50:04.586Z,3.97
2018-09-16T10:52:33.837Z,3.60
2018-09-16T10:55:03.314Z,4.50
2018-09-16T10:57:32.766Z,2.70
2018-09-16T11:00:02.423Z,3.40
2018-09-16T11:02:31.828Z,3.17
2018-09-16T11:05:01.176Z,2.77
2018-09-16T11:07:30.609Z,2.90
2018-09-16T11:09:59.989Z,2.77
2018-09-16T11:12:29.551Z,3.20
2018-09-16T11:14:58.932Z,3.43
2018-09-16T11:17:28.685Z,2.73
2018-09-16T11:19:58.314Z,3.00
2018-09-16T11:22:27.742Z,3.10
2018-09-16T11:24:57.170Z,2.93
2018-09-16T11:27:26.495Z,2.80
2018-09-16T11:29:55.816Z,2.90
2018-09-16T11:32:25.198Z,3.20
2018-09-16T11:34:54.442Z,4.20
2018-09-16T11:37:23.685Z,3.30
2018-09-16T11:39:53.120Z,3.47
2018-09-16T11:42:22.353Z,2.73
2018-09-16T11:44:52.226Z,3.13
2018-09-16T11:47:21.615Z,3.50
2018-09-16T11:49:50.902Z,2.97
2018-09-16T11:52:20.599Z,2.90
2018-09-16T11:54:49.938Z,3.87
2018-09-16T11:57:19.275Z,3.20
2018-09-16T11:59:48.634Z,3.10
2018-09-16T12:02:17.976Z,2.77
2018-09-16T12:04:47.606Z,3.47
2018-09-16T12:07:19.341Z,3.60
2018-09-16T12:09:48.832Z,4.50
2018-09-16T12:12:18.130Z,3.60
2018-09-16T12:14:47.478Z,3.60
2018-09-16T12:17:16.733Z,3.90
2018-09-16T12:19:46.079Z,4.60
2018-09-16T12:22:15.433Z,4.60
2018-09-16T12:24:45.349Z,3.60
2018-09-16T12:27:14.958Z,4.30
2018-09-16T12:29:44.402Z,3.70
2018-09-16T12:32:13.630Z,4.07
2018-09-16T12:34:43.687Z,4.50
2018-09-16T12:37:13.401Z,3.27
2018-09-16T12:39:42.683Z,3.80
2018-09-16T12:42:12.130Z,3.10
2018-09-16T12:44:41.437Z,3.40
2018-09-16T12:47:10.913Z,3.80
2018-09-16T12:49:40.265Z,3.60
2018-09-16T12:52:09.747Z,3.03
2018-09-16T12:54:39.124Z,2.53
2018-09-16T12:57:08.544Z,2.70
2018-09-16T12:59:37.944Z,3.43
2018-09-16T13:02:07.546Z,2.60
2018-09-16T13:04:37.000Z,3.47
2018-09-16T13:07:06.994Z,2.97
2018-09-16T13:09:36.637Z,2.47
2018-09-16T13:12:06.270Z,2.50
2018-09-16T13:14:36.184Z,2.90
2018-09-16T13:17:05.686Z,3.30
2018-09-16T13:19:35.454Z,3.40
2018-09-16T13:22:05.935Z,3.50
2018-09-16T13:24:35.682Z,3.50
2018-09-16T13:27:05.197Z,3.30
2018-09-16T13:29:35.014Z,3.80
2018-09-16T13:32:05.288Z,4.17
2018-09-16T13:34:34.901Z,3.80
2018-09-16T13:37:04.622Z,4.00
2018-09-16T13:39:34.334Z,3.50
2018-09-16T13:42:03.814Z,3.80
2018-09-16T13:44:33.437Z,4.63
2018-09-16T13:47:02.942Z,4.90
2018-09-16T13:49:32.325Z,4.83
2018-09-16T13:52:01.961Z,4.93
2018-09-16T13:54:31.467Z,4.77
2018-09-16T13:57:01.364Z,4.37
2018-09-16T13:59:31.075Z,5.43
2018-09-16T14:02:00.395Z,3.90
2018-09-16T14:04:30.128Z,5.30
2018-09-16T14:07:00.054Z,5.70
2018-09-16T14:09:29.688Z,5.67
2018-09-16T14:11:59.620Z,5.60
2018-09-16T14:14:29.184Z,5.63
2018-09-16T14:16:58.727Z,4.90
2018-09-16T14:19:30.409Z,5.13
2018-09-16T14:21:59.849Z,4.97
2018-09-16T14:24:29.235Z,5.37
2018-09-16T14:26:58.950Z,6.80
2018-09-16T14:29:28.548Z,4.97
2018-09-16T14:31:58.075Z,4.10
2018-09-16T14:34:27.492Z,4.47
2018-09-16T14:36:56.858Z,4.10
2018-09-16T14:39:26.242Z,4.27
2018-09-16T14:41:55.521Z,4.07
2018-09-16T14:44:25.235Z,3.20
2018-09-16T14:46:54.477Z,3.93
2018-09-16T14:49:24.356Z,3.70
2018-09-16T14:51:53.838Z,4.20
2018-09-16T14:54:23.061Z,4.53
2018-09-16T14:56:52.339Z,4.03
2018-09-16T14:59:21.662Z,4.37
2018-09-16T15:01:50.881Z,5.20
2018-09-16T15:04:20.211Z,3.70
2018-09-16T15:09:30.645Z,3.87
2018-09-16T15:12:00.443Z,3.50
2018-09-16T15:14:29.102Z,2.93
2018-09-16T15:16:58.353Z,3.70
2018-09-16T15:19:27.842Z,3.80
2018-09-16T15:21:57.288Z,4.43
2018-09-16T15:24:26.707Z,3.83
2018-09-16T15:26:56.304Z,3.90
2018-09-16T15:29:25.789Z,3.67
2018-09-16T15:31:55.237Z,5.70
2018-09-16T15:34:24.511Z,4.27
2018-09-16T15:36:54.271Z,4.53
2018-09-16T15:39:23.604Z,3.93
2018-09-16T15:41:52.920Z,4.03
2018-09-16T15:44:22.255Z,3.50
2018-09-16T15:46:51.590Z,3.73
2018-09-16T15:49:20.881Z,4.37
2018-09-16T15:51:50.309Z,4.00
2018-09-16T15:54:19.723Z,4.37
2018-09-16T15:56:48.976Z,3.60
2018-09-16T15:59:18.362Z,4.20
2018-09-16T16:01:47.966Z,3.30
2018-09-16T16:04:17.247Z,3.40
2018-09-16T16:06:46.469Z,5.93
2018-09-16T16:09:15.771Z,5.30
2018-09-16T16:11:45.098Z,4.13
2018-09-16T16:14:14.389Z,3.40
2018-09-16T16:16:43.676Z,5.60
2018-09-16T16:19:13.401Z,3.80
2018-09-16T16:21:42.774Z,3.00
2018-09-16T16:24:12.201Z,3.33
2018-09-16T16:26:41.480Z,3.50
2018-09-16T16:29:10.870Z,3.53
2018-09-16T16:31:40.302Z,4.90
2018-09-16T16:34:09.586Z,4.40
2018-09-16T16:36:38.829Z,3.87
2018-09-16T16:39:09.162Z,4.40
2018-09-16T16:41:38.692Z,5.77
2018-09-16T16:44:08.010Z,4.30
2018-09-16T16:46:38.536Z,5.60
2018-09-16T16:49:07.788Z,4.97
2018-09-16T16:51:40.888Z,4.77
2018-09-16T16:54:10.165Z,4.80
2018-09-16T16:56:39.576Z,4.87
2018-09-16T16:59:10.050Z,5.53
2018-09-16T17:01:39.424Z,5.30
2018-09-16T17:04:09.006Z,3.80
2018-09-16T17:06:39.330Z,4.50
2018-09-16T17:09:09.964Z,3.67
2018-09-16T17:11:39.613Z,4.20
2018-09-16T17:14:09.101Z,5.30
2018-09-16T17:16:38.481Z,5.43
2018-09-16T17:19:09.879Z,5.13
2018-09-16T17:21:39.202Z,4.17
2018-09-16T17:24:08.722Z,4.90
2018-09-16T17:26:38.689Z,6.07
2018-09-16T17:29:08.010Z,6.03
2018-09-16T17:31:37.482Z,5.97
2018-09-16T17:34:07.265Z,5.10
2018-09-16T17:36:36.906Z,5.60
2018-09-16T17:39:09.177Z,7.67
2018-09-16T17:41:38.798Z,6.27
2018-09-16T17:44:08.276Z,11.93
2018-09-16T17:46:37.862Z,4.60
2018-09-16T17:49:07.187Z,12.50
2018-09-16T17:51:37.099Z,4.80
2018-09-16T17:54:07.506Z,6.40
2018-09-16T17:56:37.253Z,6.37
2018-09-16T17:59:06.688Z,9.13
2018-09-16T18:01:36.314Z,5.80
2018-09-16T18:04:06.915Z,10.23
2018-09-16T18:06:36.558Z,5.30
2018-09-16T18:09:09.606Z,6.60
2018-09-16T18:11:40.362Z,10.30
2018-09-16T18:14:09.797Z,11.40
2018-09-16T18:16:39.383Z,5.60
2018-09-16T18:19:08.660Z,4.80
2018-09-16T18:21:37.913Z,4.97
2018-09-16T18:24:07.401Z,6.03
2018-09-16T18:26:37.430Z,5.80
2018-09-16T18:29:06.768Z,4.93
2018-09-16T18:31:36.341Z,6.97
2018-09-16T18:34:05.950Z,4.93
2018-09-16T18:36:35.754Z,5.53
2018-09-16T18:39:08.784Z,5.33
2018-09-16T18:41:38.365Z,8.27
2018-09-16T18:44:07.867Z,5.23
2018-09-16T18:46:37.515Z,8.80
2018-09-16T18:49:07.055Z,10.67
2018-09-16T18:51:36.541Z,5.27
2018-09-16T18:54:05.827Z,6.50
2018-09-16T18:56:35.901Z,5.30
2018-09-16T18:59:05.576Z,4.93
2018-09-16T19:01:35.172Z,5.00
2018-09-16T19:04:07.580Z,5.07
2018-09-16T19:06:37.565Z,7.27
2018-09-16T19:09:09.088Z,5.00
2018-09-16T19:11:38.727Z,5.00
2018-09-16T19:14:08.211Z,7.90
2018-09-16T19:16:37.553Z,5.17
2018-09-16T19:19:07.337Z,4.00
2018-09-16T19:21:37.074Z,4.10
2018-09-16T19:24:08.678Z,5.17
2018-09-16T19:26:38.102Z,5.17
2018-09-16T19:29:08.239Z,5.07
2018-09-16T19:31:38.061Z,4.20
2018-09-16T19:34:07.808Z,4.83
2018-09-16T19:36:37.196Z,4.70
2018-09-16T19:39:08.843Z,4.57
2018-09-16T19:41:41.291Z,4.60
2018-09-16T19:44:10.797Z,4.90
2018-09-16T19:46:40.644Z,5.50
2018-09-16T19:49:10.360Z,4.70
2018-09-16T19:51:40.082Z,4.40
2018-09-16T19:54:11.649Z,5.50
2018-09-16T19:56:40.920Z,4.40
2018-09-16T19:59:10.305Z,5.73
2018-09-16T20:01:39.556Z,6.13
2018-09-16T20:04:09.109Z,5.17
2018-09-16T20:06:38.695Z,6.07
2018-09-16T20:09:11.015Z,5.10
2018-09-16T20:11:40.705Z,6.97
2018-09-16T20:14:10.532Z,6.10
2018-09-16T20:16:40.196Z,4.73
2018-09-16T20:19:09.854Z,4.87
2018-09-16T20:21:40.149Z,6.33
2018-09-16T20:24:10.427Z,5.77
2018-09-16T20:26:40.827Z,7.10
2018-09-16T20:29:10.287Z,4.30
2018-09-16T20:31:41.724Z,5.77
2018-09-16T20:34:13.950Z,6.43
2018-09-16T20:36:43.676Z,4.47
2018-09-16T20:39:13.180Z,6.10
2018-09-16T20:41:42.638Z,5.13
2018-09-16T20:44:12.007Z,4.63
2018-09-16T20:46:41.280Z,5.77
2018-09-16T20:49:12.369Z,4.80
2018-09-16T20:51:42.774Z,4.53
2018-09-16T20:54:12.397Z,6.80
2018-09-16T20:56:41.846Z,5.20
2018-09-16T20:59:11.207Z,5.60
2018-09-16T21:01:40.824Z,6.97
2018-09-16T21:04:10.385Z,5.70
2018-09-16T21:06:39.929Z,9.73
2018-09-16T21:09:11.066Z,4.70
2018-09-16T21:11:41.347Z,10.70
2018-09-16T21:14:10.943Z,5.83
2018-09-16T21:16:40.813Z,5.33
2018-09-16T21:19:10.667Z,5.17
2018-09-16T21:21:39.934Z,5.17
2018-09-16T21:24:09.769Z,4.83
2018-09-16T21:26:39.461Z,4.70
2018-09-16T21:29:08.717Z,5.60
2018-09-16T21:31:38.177Z,6.33
2018-09-16T21:34:07.962Z,5.30
2018-09-16T21:36:38.112Z,4.67
2018-09-16T21:39:10.452Z,4.70
2018-09-16T21:41:40.322Z,6.50
2018-09-16T21:44:09.658Z,5.30
2018-09-16T21:46:39.033Z,6.83
2018-09-16T21:49:08.613Z,5.87
2018-09-16T21:51:38.006Z,6.20
2018-09-16T21:54:07.953Z,5.80
2018-09-16T21:56:37.551Z,5.90
2018-09-16T21:59:06.970Z,5.20
2018-09-16T22:01:36.601Z,5.50
2018-09-16T22:04:06.108Z,5.77
2018-09-16T22:06:35.407Z,4.87
2018-09-16T22:09:06.536Z,6.00
2018-09-16T22:11:36.114Z,5.40
2018-09-16T22:14:05.622Z,5.90
2018-09-16T22:16:35.075Z,7.77
2018-09-16T22:19:04.764Z,5.67
2018-09-16T22:21:34.409Z,6.10
2018-09-16T22:24:04.088Z,6.27
2018-09-16T22:26:33.835Z,5.63
2018-09-16T22:29:03.318Z,6.43
2018-09-16T22:31:32.825Z,5.80
2018-09-16T22:34:02.434Z,6.17
2018-09-16T22:36:32.287Z,6.63
2018-09-16T22:39:01.928Z,5.37
2018-09-16T22:41:31.483Z,5.20
2018-09-16T22:44:01.435Z,4.50
2018-09-16T22:46:31.065Z,6.40
2018-09-16T22:49:00.508Z,6.47
2018-09-16T22:51:30.082Z,5.50
2018-09-16T22:53:59.638Z,6.70
2018-09-16T22:56:29.341Z,5.63
2018-09-16T22:58:59.149Z,5.70
2018-09-16T23:01:29.452Z,5.70
2018-09-16T23:03:59.206Z,6.07
2018-09-16T23:06:29.167Z,5.93
2018-09-16T23:09:03.854Z,6.40
2018-09-16T23:11:33.245Z,6.60
2018-09-16T23:14:03.065Z,5.60
2018-09-16T23:16:32.945Z,6.03
2018-09-16T23:19:02.554Z,6.10
2018-09-16T23:21:32.326Z,5.90
2018-09-16T23:24:02.070Z,6.07
2018-09-16T23:26:32.690Z,5.43
2018-09-16T23:29:03.007Z,5.63
2018-09-16T23:31:32.610Z,5.77
2018-09-16T23:34:02.426Z,6.40
2018-09-16T23:36:32.260Z,6.17
2018-09-16T23:39:01.586Z,6.53
2018-09-16T23:41:31.474Z,7.03
2018-09-16T23:44:01.088Z,4.97
2018-09-16T23:46:30.576Z,5.57
2018-09-16T23:49:00.129Z,6.83
2018-09-16T23:51:29.900Z,6.20
2018-09-16T23:53:59.552Z,6.57
2018-09-16T23:56:29.074Z,5.87
2018-09-16T23:58:58.502Z,6.43
